• Join FlightAware (Why Join?)
  • Login
  • US Flag 
07:32AM EDT


 

Airport Tracker/Info


-or-


 

Live Flight TrackerFlight Track Log ✈ N300BS ✈ 19-Nov-2013 ✈ KFCM - KPWC

Flight Track Log - Related Links

Times and Time Zones

All times are in EST time to prevent confusion due to time zone crossing. See the N300BS flight status page for this flight to view local times or setup timezone preferences in your user account.

Time Position Orientation Groundspeed Altitude Reporting Facility
EST Latitude Longitude Course Direction KTS MPH feet Rate Location/Type
04:53PM 44.8333 -93.5167 305° West 115 132 2,800  Level Minneapolis TRACON
04:54PM 44.8381 -93.5381 287° West 113 130 3,400 780 Climbing Minneapolis Center
04:55PM 44.8542 -93.5739 302° West 109 125 4,100 300 Climbing Minneapolis Center
04:56PM 44.8664 -93.6211 290° West 126 145 4,100  Level Minneapolis Center
04:57PM 44.8819 -93.6797 291° West 133 153 4,100  Level Minneapolis Center
04:58PM 44.8947 -93.7286 290° West 133 153 4,100 -60 Level Minneapolis Center
04:59PM 44.9083 -93.7778 291° West 135 155 4,000 -60 Descending Minneapolis Center
05:00PM 44.9233 -93.8275 293° West 137 158 4,000  Level Minneapolis Center
05:01PM 44.9728 -93.8400 350° North 178 205 4,000 60 Level Minneapolis Center
05:02PM 45.0194 -93.8550 347° North 173 199 4,200 480 Climbing Minneapolis Center
05:03PM 45.0700 -93.8697 348° North 157 181 5,000 720 Climbing Minneapolis Center
05:04PM 45.1072 -93.8800 349° North 140 161 5,800 480 Climbing Minneapolis Center
05:05PM 45.1475 -93.8944 346° North 147 169 6,000  Climbing Minneapolis Center
05:06PM 45.1933 -93.9072 349° North 164 189 5,900 -60 Descending Minneapolis Center
05:07PM 45.2389 -93.9197 349° North 167 192 5,900  Level Minneapolis Center
05:08PM 45.2836 -93.9353 346° North 166 191 6,000  Climbing Minneapolis Center
05:09PM 45.3294 -93.9486 348° North 168 193 6,000  Level Minneapolis Center
05:10PM 45.3853 -93.9650 348° North 169 194 6,000  Level Minneapolis Center
05:11PM 45.4311 -93.9794 348° North 169 194 6,000  Level Minneapolis Center
05:12PM 45.4767 -93.9944 347° North 169 194 6,000  Level Minneapolis Center
05:13PM 45.5236 -94.0075 349° North 170 196 6,000  Level Minneapolis Center
05:14PM 45.5700 -94.0214 348° North 171 197 6,000  Level Minneapolis Center
05:15PM 45.6161 -94.0364 347° North 172 198 6,000  Level Minneapolis Center
05:16PM 45.6708 -94.0525 348° North 168 193 6,000  Level Minneapolis Center
05:17PM 45.7156 -94.0650 349° North 164 189 6,000  Level Minneapolis Center
05:18PM 45.7600 -94.0769 349° North 164 189 6,000  Level Minneapolis Center
05:19PM 45.8044 -94.0925 346° North 164 189 6,000  Level Minneapolis Center
05:20PM 45.8500 -94.1042 350° North 165 190 6,000  Level Minneapolis Center
05:22PM 45.8944 -94.1203 346° North 166 191 6,000 -60 Level Minneapolis Center
05:23PM 45.9483 -94.1372 348° North 165 190 5,900 -60 Descending Minneapolis Center
05:24PM 45.9939 -94.1500 349° North 166 191 5,900  Level Minneapolis Center
05:25PM 46.0389 -94.1633 348° North 166 191 5,900  Level Minneapolis Center
05:26PM 46.0828 -94.1792 346° North 165 190 5,900  Level Minneapolis Center
05:27PM 46.1278 -94.1900 351° North 164 189 5,900  Level Minneapolis Center
05:28PM 46.1719 -94.2042 347° North 164 189 5,900  Level Minneapolis Center
05:29PM 46.2153 -94.2217 344° North 163 188 5,900  Level Minneapolis Center
05:30PM 46.2597 -94.2378 346° North 164 189 5,900  Level Minneapolis Center
05:31PM 46.3142 -94.2533 349° North 165 190 5,900  Level Minneapolis Center
05:32PM 46.3586 -94.2669 348° North 165 190 5,900  Level Minneapolis Center
05:33PM 46.4017 -94.2811 347° North 163 188 5,900  Level Minneapolis Center